Impacts TAF Board
For situational awareness. Not to be used for flight planning purposes.
IDs:

KLCH - Lake Charles Rgnl, LA, US

Issued at 1720 UTC 02 Oct 2022
Updated at 2018 UTC 02 Oct 2022
Potential Impact None Slight Moderate High
Time1953Z 02/21Z 02/22Z 02/23Z 03/00Z 03/01Z 03/02Z 03/03Z 03/04Z 03/05Z 03/06Z 03/07Z 03/08Z 03/09Z>>
Type OBS PRVL PRVL PRVL PRVL PRVL PRVL PRVL PRVL PRVL PRVL PRVL PRVL PRVL
VIS 10 >6 >6 >6 >6 >6 >6 >6 >6 >6 >6 >6 >6 >6
CIG -- -- -- -- -- -- -- -- -- -- -- -- -- --
Cover CLR SKC SKC SKC SKC SKC SKC SKC SKC SKC SKC SKC SKC SKC
FltCat VFR VFR VFR VFR VFR VFR VFR VFR VFR VFR VFR VFR VFR VFR
WX -- -- -- -- -- -- -- -- -- -- -- -- -- --
WDir 50 30 30 30 30 VRB VRB VRB VRB VRB VRB VRB VRB VRB
WSpd 5 7 7 7 7 3 3 3 3 3 3 3 3 3
WGst -- -- -- -- -- -- -- -- -- -- -- -- -- --
WSHgt -- -- -- -- -- -- -- -- -- -- -- -- -- --
WSDir -- -- -- -- -- -- -- -- -- -- -- -- -- --
WSSpd -- -- -- -- -- -- -- -- -- -- -- -- -- --
R05/23
XWnd 0 3 3 3 3 VRB VRB VRB VRB VRB VRB VRB VRB VRB
HWnd 5 6 6 6 6 VRB VRB VRB VRB VRB VRB VRB VRB VRB
R15/33
XWnd 5 6 6 6 6 VRB VRB VRB VRB VRB VRB VRB VRB VRB
HWnd -1 -4 -4 -4 -4 VRB VRB VRB VRB VRB VRB VRB VRB VRB
Raw TAF
KLCH 021720Z 0218/0318 03007KT P6SM SKC
  FM030100 VRB03KT P6SM SKC


Raw METAR
KLCH 021953Z 05005KT 10SM CLR 28/07 A3006 RMK AO2 SLP188 T02830067
KLCH 021853Z 05007G15KT 10SM CLR 28/07 A3008 RMK AO2 SLP193 T02780072
KLCH 021753Z 06005KT 10SM CLR 27/07 A3011 RMK AO2 SLP204 T02720072 10272 20106 58010

METAR Board
Radar Display
Forecast Discussion
For situational awareness. Not to be used for flight planning purposes.